sensor_id;sensor_type;location;lat;lon;timestamp;temperature;humidity
17483;DHT22;8858;52.308;20.994;2023-03-01T00:01:50;-0.50;99.90
17483;DHT22;8858;52.308;20.994;2023-03-01T00:04:19;-0.50;99.90
17483;DHT22;8858;52.308;20.994;2023-03-01T00:06:52;-0.50;99.90
17483;DHT22;8858;52.308;20.994;2023-03-01T00:09:20;-0.50;99.90
17483;DHT22;8858;52.308;20.994;2023-03-01T00:11:50;-0.50;99.90
17483;DHT22;8858;52.308;20.994;2023-03-01T00:14:20;-0.60;99.90
17483;DHT22;8858;52.308;20.994;2023-03-01T00:16:49;-0.60;99.90
17483;DHT22;8858;52.308;20.994;2023-03-01T00:19:20;-0.60;99.90
17483;DHT22;8858;52.308;20.994;2023-03-01T00:21:50;-0.70;99.90
17483;DHT22;8858;52.308;20.994;2023-03-01T00:24:19;-0.70;99.90
17483;DHT22;8858;52.308;20.994;2023-03-01T00:26:54;-0.70;99.90
17483;DHT22;8858;52.308;20.994;2023-03-01T00:29:23;-0.70;99.90
17483;DHT22;8858;52.308;20.994;2023-03-01T00:31:52;-0.70;99.90
17483;DHT22;8858;52.308;20.994;2023-03-01T00:34:21;-0.80;99.90
17483;DHT22;8858;52.308;20.994;2023-03-01T00:36:50;-0.70;99.90
17483;DHT22;8858;52.308;20.994;2023-03-01T00:39:19;-0.80;99.90
17483;DHT22;8858;52.308;20.994;2023-03-01T00:41:48;-0.70;99.90
17483;DHT22;8858;52.308;20.994;2023-03-01T00:44:18;-0.70;99.90
17483;DHT22;8858;52.308;20.994;2023-03-01T00:46:48;-0.70;99.90
17483;DHT22;8858;52.308;20.994;2023-03-01T00:49:17;-0.70;99.90
17483;DHT22;8858;52.308;20.994;2023-03-01T00:51:45;-0.70;99.90
17483;DHT22;8858;52.308;20.994;2023-03-01T00:54:14;-0.70;99.90
17483;DHT22;8858;52.308;20.994;2023-03-01T00:56:46;-0.80;99.90
17483;DHT22;8858;52.308;20.994;2023-03-01T00:59:15;-0.80;99.90
17483;DHT22;8858;52.308;20.994;2023-03-01T01:01:46;-0.80;99.90
17483;DHT22;8858;52.308;20.994;2023-03-01T01:04:14;-0.80;99.90
17483;DHT22;8858;52.308;20.994;2023-03-01T01:06:45;-0.80;99.90
17483;DHT22;8858;52.308;20.994;2023-03-01T01:09:14;-0.90;99.90
17483;DHT22;8858;52.308;20.994;2023-03-01T01:11:47;-0.90;99.90
17483;DHT22;8858;52.308;20.994;2023-03-01T01:14:17;-0.80;99.90
17483;DHT22;8858;52.308;20.994;2023-03-01T01:16:47;-0.90;99.90
17483;DHT22;8858;52.308;20.994;2023-03-01T01:19:15;-0.90;99.90
17483;DHT22;8858;52.308;20.994;2023-03-01T01:21:44;-0.90;99.90
17483;DHT22;8858;52.308;20.994;2023-03-01T01:24:14;-0.90;99.90
17483;DHT22;8858;52.308;20.994;2023-03-01T01:26:42;-0.90;99.90
17483;DHT22;8858;52.308;20.994;2023-03-01T01:29:12;-0.90;99.90
17483;DHT22;8858;52.308;20.994;2023-03-01T01:31:42;-0.90;99.90
17483;DHT22;8858;52.308;20.994;2023-03-01T01:34:15;-0.90;99.90
17483;DHT22;8858;52.308;20.994;2023-03-01T01:36:47;-0.90;99.90
17483;DHT22;8858;52.308;20.994;2023-03-01T01:39:17;-0.90;99.90
17483;DHT22;8858;52.308;20.994;2023-03-01T01:41:45;-0.90;99.90
17483;DHT22;8858;52.308;20.994;2023-03-01T01:44:17;-0.90;99.90
17483;DHT22;8858;52.308;20.994;2023-03-01T01:46:49;-0.80;99.90
17483;DHT22;8858;52.308;20.994;2023-03-01T01:49:31;-0.80;99.90
17483;DHT22;8858;52.308;20.994;2023-03-01T01:52:06;-0.80;99.90
17483;DHT22;8858;52.308;20.994;2023-03-01T01:54:42;-0.80;99.90
17483;DHT22;8858;52.308;20.994;2023-03-01T01:57:16;-0.80;99.90
17483;DHT22;8858;52.308;20.994;2023-03-01T01:59:51;-0.90;99.90
17483;DHT22;8858;52.308;20.994;2023-03-01T02:02:20;-0.90;99.90
17483;DHT22;8858;52.308;20.994;2023-03-01T02:04:54;-0.80;99.90
17483;DHT22;8858;52.308;20.994;2023-03-01T02:07:27;-0.90;99.90
17483;DHT22;8858;52.308;20.994;2023-03-01T02:09:56;-0.90;99.90
17483;DHT22;8858;52.308;20.994;2023-03-01T02:12:29;-1.00;99.90
17483;DHT22;8858;52.308;20.994;2023-03-01T02:14:58;-1.00;99.90
17483;DHT22;8858;52.308;20.994;2023-03-01T02:17:27;-1.00;99.90
17483;DHT22;8858;52.308;20.994;2023-03-01T02:20:04;-1.00;99.90
17483;DHT22;8858;52.308;20.994;2023-03-01T02:22:37;-1.10;99.90
17483;DHT22;8858;52.308;20.994;2023-03-01T02:25:12;-1.10;99.90
17483;DHT22;8858;52.308;20.994;2023-03-01T02:27:52;-1.10;99.90
17483;DHT22;8858;52.308;20.994;2023-03-01T02:30:24;-1.10;99.90
17483;DHT22;8858;52.308;20.994;2023-03-01T02:32:54;-1.10;99.90
17483;DHT22;8858;52.308;20.994;2023-03-01T02:35:35;-1.10;99.90
17483;DHT22;8858;52.308;20.994;2023-03-01T02:38:09;-1.20;99.90
17483;DHT22;8858;52.308;20.994;2023-03-01T02:40:38;-1.20;99.90
17483;DHT22;8858;52.308;20.994;2023-03-01T02:43:09;-1.20;99.90
17483;DHT22;8858;52.308;20.994;2023-03-01T02:45:48;-1.20;99.90
17483;DHT22;8858;52.308;20.994;2023-03-01T02:48:17;-1.20;99.90
17483;DHT22;8858;52.308;20.994;2023-03-01T02:50:53;-1.20;99.90
17483;DHT22;8858;52.308;20.994;2023-03-01T02:53:34;-1.20;99.90
17483;DHT22;8858;52.308;20.994;2023-03-01T02:56:04;-1.30;99.90
17483;DHT22;8858;52.308;20.994;2023-03-01T02:58:42;-1.30;99.90
17483;DHT22;8858;52.308;20.994;2023-03-01T03:01:17;-1.20;99.90
17483;DHT22;8858;52.308;20.994;2023-03-01T03:03:50;-1.30;99.90
17483;DHT22;8858;52.308;20.994;2023-03-01T03:06:19;-1.30;99.90
17483;DHT22;8858;52.308;20.994;2023-03-01T03:08:49;-1.30;99.90
17483;DHT22;8858;52.308;20.994;2023-03-01T03:11:18;-1.30;99.90
17483;DHT22;8858;52.308;20.994;2023-03-01T03:13:47;-1.30;99.90
17483;DHT22;8858;52.308;20.994;2023-03-01T03:16:20;-1.30;99.90
17483;DHT22;8858;52.308;20.994;2023-03-01T03:18:49;-1.20;99.90
17483;DHT22;8858;52.308;20.994;2023-03-01T03:21:17;-1.20;99.90
17483;DHT22;8858;52.308;20.994;2023-03-01T03:23:45;-1.20;99.90
17483;DHT22;8858;52.308;20.994;2023-03-01T03:26:14;-1.30;99.90
17483;DHT22;8858;52.308;20.994;2023-03-01T03:29:06;-1.20;99.90
17483;DHT22;8858;52.308;20.994;2023-03-01T03:31:36;-1.20;99.90
17483;DHT22;8858;52.308;20.994;2023-03-01T03:34:05;-1.20;99.90
17483;DHT22;8858;52.308;20.994;2023-03-01T03:36:37;-1.10;99.90
17483;DHT22;8858;52.308;20.994;2023-03-01T03:39:05;-1.10;99.90
17483;DHT22;8858;52.308;20.994;2023-03-01T03:41:34;-1.00;99.90
17483;DHT22;8858;52.308;20.994;2023-03-01T03:44:03;-1.00;99.90
17483;DHT22;8858;52.308;20.994;2023-03-01T03:46:32;-1.10;99.90
17483;DHT22;8858;52.308;20.994;2023-03-01T03:49:06;-1.00;99.90
17483;DHT22;8858;52.308;20.994;2023-03-01T03:51:35;-1.00;99.90
17483;DHT22;8858;52.308;20.994;2023-03-01T03:54:05;-1.10;99.90
17483;DHT22;8858;52.308;20.994;2023-03-01T03:56:36;-1.10;99.90
17483;DHT22;8858;52.308;20.994;2023-03-01T03:59:05;-1.10;99.90
17483;DHT22;8858;52.308;20.994;2023-03-01T04:01:34;-1.20;99.90
17483;DHT22;8858;52.308;20.994;2023-03-01T04:04:03;-1.20;99.90
17483;DHT22;8858;52.308;20.994;2023-03-01T04:06:34;-1.20;99.90
17483;DHT22;8858;52.308;20.994;2023-03-01T04:09:05;-1.10;99.90
17483;DHT22;8858;52.308;20.994;2023-03-01T04:11:33;-1.10;99.90
17483;DHT22;8858;52.308;20.994;2023-03-01T04:14:02;-1.20;99.90
17483;DHT22;8858;52.308;20.994;2023-03-01T04:16:31;-1.20;99.90
17483;DHT22;8858;52.308;20.994;2023-03-01T04:19:00;-1.30;99.90
17483;DHT22;8858;52.308;20.994;2023-03-01T04:21:34;-1.30;99.90
17483;DHT22;8858;52.308;20.994;2023-03-01T04:24:03;-1.30;99.90
17483;DHT22;8858;52.308;20.994;2023-03-01T04:26:31;-1.30;99.90
17483;DHT22;8858;52.308;20.994;2023-03-01T04:29:00;-1.20;99.90
17483;DHT22;8858;52.308;20.994;2023-03-01T04:31:29;-1.20;99.90
17483;DHT22;8858;52.308;20.994;2023-03-01T04:33:57;-1.20;99.90
17483;DHT22;8858;52.308;20.994;2023-03-01T04:36:28;-1.20;99.90
17483;DHT22;8858;52.308;20.994;2023-03-01T04:38:59;-1.20;99.90
17483;DHT22;8858;52.308;20.994;2023-03-01T04:41:40;-1.20;99.90
17483;DHT22;8858;52.308;20.994;2023-03-01T04:44:10;-1.20;99.90
17483;DHT22;8858;52.308;20.994;2023-03-01T04:46:38;-1.10;99.90
17483;DHT22;8858;52.308;20.994;2023-03-01T04:49:06;-1.10;99.90
17483;DHT22;8858;52.308;20.994;2023-03-01T04:51:37;-1.20;99.90
17483;DHT22;8858;52.308;20.994;2023-03-01T04:54:08;-1.20;99.90
17483;DHT22;8858;52.308;20.994;2023-03-01T04:56:37;-1.30;99.90
17483;DHT22;8858;52.308;20.994;2023-03-01T04:59:06;-1.30;99.90
17483;DHT22;8858;52.308;20.994;2023-03-01T05:01:40;-1.20;99.90
17483;DHT22;8858;52.308;20.994;2023-03-01T05:04:10;-1.30;99.90
17483;DHT22;8858;52.308;20.994;2023-03-01T05:06:39;-1.20;99.90
17483;DHT22;8858;52.308;20.994;2023-03-01T05:09:10;-1.30;99.90
17483;DHT22;8858;52.308;20.994;2023-03-01T05:11:39;-1.30;99.90
17483;DHT22;8858;52.308;20.994;2023-03-01T05:14:09;-1.20;99.90
17483;DHT22;8858;52.308;20.994;2023-03-01T05:16:38;-1.20;99.90
17483;DHT22;8858;52.308;20.994;2023-03-01T05:19:07;-1.20;99.90
17483;DHT22;8858;52.308;20.994;2023-03-01T05:21:42;-1.30;99.90
17483;DHT22;8858;52.308;20.994;2023-03-01T05:24:27;-1.30;99.90
17483;DHT22;8858;52.308;20.994;2023-03-01T05:26:57;-1.30;99.90
17483;DHT22;8858;52.308;20.994;2023-03-01T05:29:27;-1.40;99.90
17483;DHT22;8858;52.308;20.994;2023-03-01T05:31:59;-1.40;99.90
17483;DHT22;8858;52.308;20.994;2023-03-01T05:34:29;-1.40;99.90
17483;DHT22;8858;52.308;20.994;2023-03-01T05:36:58;-1.30;99.90
17483;DHT22;8858;52.308;20.994;2023-03-01T05:39:29;-1.30;99.90
17483;DHT22;8858;52.308;20.994;2023-03-01T05:42:01;-1.30;99.90
17483;DHT22;8858;52.308;20.994;2023-03-01T05:44:29;-1.30;99.90
17483;DHT22;8858;52.308;20.994;2023-03-01T05:46:57;-1.30;99.90
17483;DHT22;8858;52.308;20.994;2023-03-01T05:49:26;-1.40;99.90
17483;DHT22;8858;52.308;20.994;2023-03-01T05:51:55;-1.40;99.90
17483;DHT22;8858;52.308;20.994;2023-03-01T05:54:23;-1.40;99.90
17483;DHT22;8858;52.308;20.994;2023-03-01T05:56:55;-1.40;99.90
17483;DHT22;8858;52.308;20.994;2023-03-01T05:59:23;-1.30;99.90
17483;DHT22;8858;52.308;20.994;2023-03-01T06:01:52;-1.30;99.90
17483;DHT22;8858;52.308;20.994;2023-03-01T06:04:20;-1.30;99.90
17483;DHT22;8858;52.308;20.994;2023-03-01T06:06:48;-1.20;99.90
17483;DHT22;8858;52.308;20.994;2023-03-01T06:09:16;-1.20;99.90
17483;DHT22;8858;52.308;20.994;2023-03-01T06:11:45;-1.20;99.90
17483;DHT22;8858;52.308;20.994;2023-03-01T06:14:14;-1.20;99.90
17483;DHT22;8858;52.308;20.994;2023-03-01T06:16:43;-1.10;99.90
17483;DHT22;8858;52.308;20.994;2023-03-01T06:19:11;-1.10;99.90
17483;DHT22;8858;52.308;20.994;2023-03-01T06:21:39;-1.10;99.90
17483;DHT22;8858;52.308;20.994;2023-03-01T06:24:08;-1.00;99.90
17483;DHT22;8858;52.308;20.994;2023-03-01T06:26:36;-1.00;99.90
17483;DHT22;8858;52.308;20.994;2023-03-01T06:29:05;-1.00;99.90
17483;DHT22;8858;52.308;20.994;2023-03-01T06:31:35;-0.90;99.90
17483;DHT22;8858;52.308;20.994;2023-03-01T06:34:04;-0.90;99.90
17483;DHT22;8858;52.308;20.994;2023-03-01T06:36:33;-0.80;99.90
17483;DHT22;8858;52.308;20.994;2023-03-01T06:39:01;-0.80;99.90
17483;DHT22;8858;52.308;20.994;2023-03-01T06:41:29;-0.70;99.90
17483;DHT22;8858;52.308;20.994;2023-03-01T06:43:58;-0.70;99.90
17483;DHT22;8858;52.308;20.994;2023-03-01T06:46:26;-0.60;99.90
17483;DHT22;8858;52.308;20.994;2023-03-01T06:48:56;-0.60;99.90
17483;DHT22;8858;52.308;20.994;2023-03-01T06:51:25;-0.60;99.90
17483;DHT22;8858;52.308;20.994;2023-03-01T06:53:54;-0.60;99.90
17483;DHT22;8858;52.308;20.994;2023-03-01T06:56:22;-0.60;99.90
17483;DHT22;8858;52.308;20.994;2023-03-01T06:58:50;-0.60;99.90
17483;DHT22;8858;52.308;20.994;2023-03-01T07:01:18;-0.50;99.90
17483;DHT22;8858;52.308;20.994;2023-03-01T07:03:47;-0.50;99.90
17483;DHT22;8858;52.308;20.994;2023-03-01T07:06:16;-0.50;99.90
17483;DHT22;8858;52.308;20.994;2023-03-01T07:08:47;-0.40;99.90
17483;DHT22;8858;52.308;20.994;2023-03-01T07:11:16;-0.40;99.90
17483;DHT22;8858;52.308;20.994;2023-03-01T07:13:44;-0.30;99.90
17483;DHT22;8858;52.308;20.994;2023-03-01T07:16:12;-0.30;99.90
17483;DHT22;8858;52.308;20.994;2023-03-01T07:18:41;-0.30;99.90
17483;DHT22;8858;52.308;20.994;2023-03-01T07:21:12;-0.30;99.90
17483;DHT22;8858;52.308;20.994;2023-03-01T07:23:42;-0.30;99.90
17483;DHT22;8858;52.308;20.994;2023-03-01T07:26:10;-0.30;99.90
17483;DHT22;8858;52.308;20.994;2023-03-01T07:28:39;-0.10;99.90
17483;DHT22;8858;52.308;20.994;2023-03-01T07:31:07;-0.10;99.90
17483;DHT22;8858;52.308;20.994;2023-03-01T07:33:36;0.00;99.90
17483;DHT22;8858;52.308;20.994;2023-03-01T07:36:05;0.00;99.90
17483;DHT22;8858;52.308;20.994;2023-03-01T07:38:33;0.00;99.90
17483;DHT22;8858;52.308;20.994;2023-03-01T07:41:04;0.10;99.90
17483;DHT22;8858;52.308;20.994;2023-03-01T07:43:32;0.20;99.90
17483;DHT22;8858;52.308;20.994;2023-03-01T07:46:02;0.30;99.90
17483;DHT22;8858;52.308;20.994;2023-03-01T07:48:32;0.40;99.90
17483;DHT22;8858;52.308;20.994;2023-03-01T07:51:06;0.40;99.90
17483;DHT22;8858;52.308;20.994;2023-03-01T07:53:35;0.60;99.90
17483;DHT22;8858;52.308;20.994;2023-03-01T07:56:06;0.60;99.90
17483;DHT22;8858;52.308;20.994;2023-03-01T07:58:39;0.80;99.90
17483;DHT22;8858;52.308;20.994;2023-03-01T08:01:10;0.80;99.90
17483;DHT22;8858;52.308;20.994;2023-03-01T08:03:39;0.90;99.90
17483;DHT22;8858;52.308;20.994;2023-03-01T08:06:08;1.00;99.90
17483;DHT22;8858;52.308;20.994;2023-03-01T08:08:39;1.00;99.90
17483;DHT22;8858;52.308;20.994;2023-03-01T08:11:11;1.20;99.90
17483;DHT22;8858;52.308;20.994;2023-03-01T08:13:42;1.30;99.90
17483;DHT22;8858;52.308;20.994;2023-03-01T08:16:15;1.30;99.90
17483;DHT22;8858;52.308;20.994;2023-03-01T08:18:44;1.40;99.90
17483;DHT22;8858;52.308;20.994;2023-03-01T08:21:14;1.50;99.90
17483;DHT22;8858;52.308;20.994;2023-03-01T08:23:43;1.50;99.90
17483;DHT22;8858;52.308;20.994;2023-03-01T08:26:15;1.50;99.90
17483;DHT22;8858;52.308;20.994;2023-03-01T08:28:46;1.60;99.90
17483;DHT22;8858;52.308;20.994;2023-03-01T08:31:17;1.60;99.90
17483;DHT22;8858;52.308;20.994;2023-03-01T08:33:52;1.70;99.90
17483;DHT22;8858;52.308;20.994;2023-03-01T08:36:23;1.70;99.90
17483;DHT22;8858;52.308;20.994;2023-03-01T08:38:52;1.80;99.90
17483;DHT22;8858;52.308;20.994;2023-03-01T08:41:21;1.90;99.90
17483;DHT22;8858;52.308;20.994;2023-03-01T08:43:53;2.00;99.90
17483;DHT22;8858;52.308;20.994;2023-03-01T08:46:26;2.10;99.90
17483;DHT22;8858;52.308;20.994;2023-03-01T08:48:55;2.20;99.90
17483;DHT22;8858;52.308;20.994;2023-03-01T08:51:27;2.40;99.90
17483;DHT22;8858;52.308;20.994;2023-03-01T08:53:56;2.50;99.90
17483;DHT22;8858;52.308;20.994;2023-03-01T08:56:25;2.60;99.90
17483;DHT22;8858;52.308;20.994;2023-03-01T08:58:53;2.80;99.90
17483;DHT22;8858;52.308;20.994;2023-03-01T09:01:21;2.80;99.90
17483;DHT22;8858;52.308;20.994;2023-03-01T09:03:50;2.90;99.90
17483;DHT22;8858;52.308;20.994;2023-03-01T09:06:18;2.90;99.90
17483;DHT22;8858;52.308;20.994;2023-03-01T09:08:49;2.90;99.90
17483;DHT22;8858;52.308;20.994;2023-03-01T09:11:20;2.90;99.90
17483;DHT22;8858;52.308;20.994;2023-03-01T09:13:50;3.00;99.90
17483;DHT22;8858;52.308;20.994;2023-03-01T09:16:22;3.00;99.90
17483;DHT22;8858;52.308;20.994;2023-03-01T09:18:52;3.10;99.90
17483;DHT22;8858;52.308;20.994;2023-03-01T09:21:23;3.10;99.90
17483;DHT22;8858;52.308;20.994;2023-03-01T09:24:06;3.10;99.90
17483;DHT22;8858;52.308;20.994;2023-03-01T09:26:34;3.10;99.90
17483;DHT22;8858;52.308;20.994;2023-03-01T09:29:04;3.10;99.90
17483;DHT22;8858;52.308;20.994;2023-03-01T09:31:33;3.10;99.90
17483;DHT22;8858;52.308;20.994;2023-03-01T09:34:01;3.10;99.90
17483;DHT22;8858;52.308;20.994;2023-03-01T09:36:29;3.20;99.90
17483;DHT22;8858;52.308;20.994;2023-03-01T09:39:00;3.20;99.90
17483;DHT22;8858;52.308;20.994;2023-03-01T09:41:54;3.20;99.90
17483;DHT22;8858;52.308;20.994;2023-03-01T09:44:36;3.30;99.90
17483;DHT22;8858;52.308;20.994;2023-03-01T09:47:14;3.30;99.90
17483;DHT22;8858;52.308;20.994;2023-03-01T09:49:47;3.40;99.90
17483;DHT22;8858;52.308;20.994;2023-03-01T09:52:25;3.40;99.90
17483;DHT22;8858;52.308;20.994;2023-03-01T09:54:59;3.50;99.90
17483;DHT22;8858;52.308;20.994;2023-03-01T09:57:36;3.50;99.90
17483;DHT22;8858;52.308;20.994;2023-03-01T10:00:22;3.50;99.90
17483;DHT22;8858;52.308;20.994;2023-03-01T10:02:58;3.60;99.90
17483;DHT22;8858;52.308;20.994;2023-03-01T10:05:39;3.70;99.90
17483;DHT22;8858;52.308;20.994;2023-03-01T10:08:30;3.80;99.90
17483;DHT22;8858;52.308;20.994;2023-03-01T10:11:04;3.80;99.90
17483;DHT22;8858;52.308;20.994;2023-03-01T10:13:45;3.90;99.90
17483;DHT22;8858;52.308;20.994;2023-03-01T10:16:21;4.00;99.90
17483;DHT22;8858;52.308;20.994;2023-03-01T10:18:53;4.00;99.90
17483;DHT22;8858;52.308;20.994;2023-03-01T10:21:26;4.10;99.90
17483;DHT22;8858;52.308;20.994;2023-03-01T10:23:59;4.20;99.90
17483;DHT22;8858;52.308;20.994;2023-03-01T10:26:43;4.20;99.90
17483;DHT22;8858;52.308;20.994;2023-03-01T10:29:15;4.30;99.90
17483;DHT22;8858;52.308;20.994;2023-03-01T10:31:46;4.30;99.90
17483;DHT22;8858;52.308;20.994;2023-03-01T10:34:18;4.40;99.90
17483;DHT22;8858;52.308;20.994;2023-03-01T10:36:50;4.50;99.90
17483;DHT22;8858;52.308;20.994;2023-03-01T10:39:20;4.60;99.90
17483;DHT22;8858;52.308;20.994;2023-03-01T10:41:57;4.50;99.90
17483;DHT22;8858;52.308;20.994;2023-03-01T10:44:43;4.50;99.90
17483;DHT22;8858;52.308;20.994;2023-03-01T10:47:19;4.50;99.90
17483;DHT22;8858;52.308;20.994;2023-03-01T10:49:57;4.60;99.90
17483;DHT22;8858;52.308;20.994;2023-03-01T10:52:30;4.60;99.90
17483;DHT22;8858;52.308;20.994;2023-03-01T10:55:02;4.60;99.90
17483;DHT22;8858;52.308;20.994;2023-03-01T10:57:37;4.70;99.90
17483;DHT22;8858;52.308;20.994;2023-03-01T11:00:24;4.80;99.90
17483;DHT22;8858;52.308;20.994;2023-03-01T11:03:11;4.80;99.90
17483;DHT22;8858;52.308;20.994;2023-03-01T11:05:52;4.90;99.90
17483;DHT22;8858;52.308;20.994;2023-03-01T11:08:36;4.90;99.90
17483;DHT22;8858;52.308;20.994;2023-03-01T11:11:23;5.00;99.90
17483;DHT22;8858;52.308;20.994;2023-03-01T11:13:56;5.10;99.90
17483;DHT22;8858;52.308;20.994;2023-03-01T11:16:29;5.20;99.90
17483;DHT22;8858;52.308;20.994;2023-03-01T11:19:13;5.20;99.90
17483;DHT22;8858;52.308;20.994;2023-03-01T11:21:47;5.40;99.90
17483;DHT22;8858;52.308;20.994;2023-03-01T11:24:19;5.50;99.90
17483;DHT22;8858;52.308;20.994;2023-03-01T11:26:51;5.60;99.90
17483;DHT22;8858;52.308;20.994;2023-03-01T11:29:27;5.70;99.90
17483;DHT22;8858;52.308;20.994;2023-03-01T11:32:14;5.80;99.90
17483;DHT22;8858;52.308;20.994;2023-03-01T11:34:49;5.80;99.90
17483;DHT22;8858;52.308;20.994;2023-03-01T11:37:32;5.90;99.90
17483;DHT22;8858;52.308;20.994;2023-03-01T11:40:11;5.90;99.90
17483;DHT22;8858;52.308;20.994;2023-03-01T11:42:52;6.00;99.90
17483;DHT22;8858;52.308;20.994;2023-03-01T11:45:24;6.00;99.90
17483;DHT22;8858;52.308;20.994;2023-03-01T11:48:11;6.10;99.90
17483;DHT22;8858;52.308;20.994;2023-03-01T11:50:46;6.20;99.90
17483;DHT22;8858;52.308;20.994;2023-03-01T11:53:37;6.40;99.90
17483;DHT22;8858;52.308;20.994;2023-03-01T11:56:38;6.40;99.90
17483;DHT22;8858;52.308;20.994;2023-03-01T11:59:44;6.60;99.90
17483;DHT22;8858;52.308;20.994;2023-03-01T12:05:24;6.70;99.90
17483;DHT22;8858;52.308;20.994;2023-03-01T12:08:03;6.70;99.90
17483;DHT22;8858;52.308;20.994;2023-03-01T12:10:41;6.80;99.90
17483;DHT22;8858;52.308;20.994;2023-03-01T12:13:38;7.00;99.90
17483;DHT22;8858;52.308;20.994;2023-03-01T12:16:28;6.90;99.90
17483;DHT22;8858;52.308;20.994;2023-03-01T12:19:20;7.10;99.90
17483;DHT22;8858;52.308;20.994;2023-03-01T12:22:13;7.10;99.90
17483;DHT22;8858;52.308;20.994;2023-03-01T12:25:12;7.30;99.90
17483;DHT22;8858;52.308;20.994;2023-03-01T12:28:14;7.40;99.90
17483;DHT22;8858;52.308;20.994;2023-03-01T12:31:00;7.40;99.90
17483;DHT22;8858;52.308;20.994;2023-03-01T12:33:40;7.50;99.90
17483;DHT22;8858;52.308;20.994;2023-03-01T12:36:35;7.50;99.90
17483;DHT22;8858;52.308;20.994;2023-03-01T12:39:28;7.50;99.90
17483;DHT22;8858;52.308;20.994;2023-03-01T12:42:10;7.60;99.90
17483;DHT22;8858;52.308;20.994;2023-03-01T12:44:52;7.70;99.90
17483;DHT22;8858;52.308;20.994;2023-03-01T12:47:34;7.70;99.90
17483;DHT22;8858;52.308;20.994;2023-03-01T12:50:12;7.60;99.90
17483;DHT22;8858;52.308;20.994;2023-03-01T12:52:48;7.50;99.90
17483;DHT22;8858;52.308;20.994;2023-03-01T12:55:25;7.50;99.90
17483;DHT22;8858;52.308;20.994;2023-03-01T12:58:03;7.70;99.90
17483;DHT22;8858;52.308;20.994;2023-03-01T13:00:40;7.80;99.90
17483;DHT22;8858;52.308;20.994;2023-03-01T13:03:23;7.80;99.90
17483;DHT22;8858;52.308;20.994;2023-03-01T13:06:07;8.00;99.90
17483;DHT22;8858;52.308;20.994;2023-03-01T13:08:41;8.20;99.90
17483;DHT22;8858;52.308;20.994;2023-03-01T13:11:17;8.30;99.90
17483;DHT22;8858;52.308;20.994;2023-03-01T13:13:48;8.40;99.90
17483;DHT22;8858;52.308;20.994;2023-03-01T13:16:38;8.60;99.90
17483;DHT22;8858;52.308;20.994;2023-03-01T13:19:13;8.50;99.90
17483;DHT22;8858;52.308;20.994;2023-03-01T13:21:43;8.40;99.90
17483;DHT22;8858;52.308;20.994;2023-03-01T13:24:29;8.60;99.90
17483;DHT22;8858;52.308;20.994;2023-03-01T13:27:22;8.70;99.90
17483;DHT22;8858;52.308;20.994;2023-03-01T13:29:56;8.80;99.90
17483;DHT22;8858;52.308;20.994;2023-03-01T13:32:27;8.90;99.90
17483;DHT22;8858;52.308;20.994;2023-03-01T13:35:40;9.00;99.90
17483;DHT22;8858;52.308;20.994;2023-03-01T13:38:37;9.00;99.90
17483;DHT22;8858;52.308;20.994;2023-03-01T13:41:07;9.00;99.90
17483;DHT22;8858;52.308;20.994;2023-03-01T13:43:37;8.90;99.90
17483;DHT22;8858;52.308;20.994;2023-03-01T13:46:16;8.90;99.90
17483;DHT22;8858;52.308;20.994;2023-03-01T13:48:50;8.90;99.90
17483;DHT22;8858;52.308;20.994;2023-03-01T13:51:24;8.90;99.90
17483;DHT22;8858;52.308;20.994;2023-03-01T13:53:55;8.90;99.90
17483;DHT22;8858;52.308;20.994;2023-03-01T13:56:27;8.90;99.90
17483;DHT22;8858;52.308;20.994;2023-03-01T13:59:01;8.80;99.90
17483;DHT22;8858;52.308;20.994;2023-03-01T14:01:34;8.70;99.90
17483;DHT22;8858;52.308;20.994;2023-03-01T14:04:14;8.70;99.90
17483;DHT22;8858;52.308;20.994;2023-03-01T14:06:46;8.70;99.90
17483;DHT22;8858;52.308;20.994;2023-03-01T14:09:17;8.70;99.90
17483;DHT22;8858;52.308;20.994;2023-03-01T14:12:14;8.60;99.90
17483;DHT22;8858;52.308;20.994;2023-03-01T14:14:48;8.40;99.90
17483;DHT22;8858;52.308;20.994;2023-03-01T14:17:56;8.30;99.90
17483;DHT22;8858;52.308;20.994;2023-03-01T14:20:32;8.20;99.90
17483;DHT22;8858;52.308;20.994;2023-03-01T14:23:10;8.10;99.90
17483;DHT22;8858;52.308;20.994;2023-03-01T14:25:47;7.90;99.90
17483;DHT22;8858;52.308;20.994;2023-03-01T14:28:18;7.80;99.90
17483;DHT22;8858;52.308;20.994;2023-03-01T14:30:49;7.80;99.90
17483;DHT22;8858;52.308;20.994;2023-03-01T14:33:22;7.70;99.90
17483;DHT22;8858;52.308;20.994;2023-03-01T14:35:56;7.70;99.90
17483;DHT22;8858;52.308;20.994;2023-03-01T14:38:32;7.50;99.90
17483;DHT22;8858;52.308;20.994;2023-03-01T14:41:06;7.40;99.90
17483;DHT22;8858;52.308;20.994;2023-03-01T14:43:36;7.30;99.90
17483;DHT22;8858;52.308;20.994;2023-03-01T14:46:18;7.30;99.90
17483;DHT22;8858;52.308;20.994;2023-03-01T14:48:50;7.20;99.90
17483;DHT22;8858;52.308;20.994;2023-03-01T14:51:19;7.20;99.90
17483;DHT22;8858;52.308;20.994;2023-03-01T14:53:48;7.10;99.90
17483;DHT22;8858;52.308;20.994;2023-03-01T14:56:18;7.10;99.90
17483;DHT22;8858;52.308;20.994;2023-03-01T14:58:46;7.00;99.90
17483;DHT22;8858;52.308;20.994;2023-03-01T15:01:20;6.90;99.90
17483;DHT22;8858;52.308;20.994;2023-03-01T15:03:51;6.90;99.90
17483;DHT22;8858;52.308;20.994;2023-03-01T15:06:22;6.80;99.90
17483;DHT22;8858;52.308;20.994;2023-03-01T15:08:55;6.90;99.90
17483;DHT22;8858;52.308;20.994;2023-03-01T15:11:28;6.80;99.90
17483;DHT22;8858;52.308;20.994;2023-03-01T15:13:57;6.80;99.90
17483;DHT22;8858;52.308;20.994;2023-03-01T15:16:29;6.80;99.90
17483;DHT22;8858;52.308;20.994;2023-03-01T15:19:04;6.90;99.90
17483;DHT22;8858;52.308;20.994;2023-03-01T15:21:36;6.90;99.90
17483;DHT22;8858;52.308;20.994;2023-03-01T15:24:07;6.80;99.90
17483;DHT22;8858;52.308;20.994;2023-03-01T15:26:51;6.80;99.90
17483;DHT22;8858;52.308;20.994;2023-03-01T15:29:27;6.80;99.90
17483;DHT22;8858;52.308;20.994;2023-03-01T15:31:58;6.80;99.90
17483;DHT22;8858;52.308;20.994;2023-03-01T15:34:29;6.80;99.90
17483;DHT22;8858;52.308;20.994;2023-03-01T15:37:01;6.80;99.90
17483;DHT22;8858;52.308;20.994;2023-03-01T15:39:34;6.80;99.90
17483;DHT22;8858;52.308;20.994;2023-03-01T15:42:09;6.70;99.90
17483;DHT22;8858;52.308;20.994;2023-03-01T15:44:40;6.70;99.90
17483;DHT22;8858;52.308;20.994;2023-03-01T15:47:36;6.70;99.90
17483;DHT22;8858;52.308;20.994;2023-03-01T15:50:17;6.70;99.90
17483;DHT22;8858;52.308;20.994;2023-03-01T15:52:47;6.60;99.90
17483;DHT22;8858;52.308;20.994;2023-03-01T15:55:17;6.60;99.90
17483;DHT22;8858;52.308;20.994;2023-03-01T15:57:49;6.50;99.90
17483;DHT22;8858;52.308;20.994;2023-03-01T16:00:19;6.40;99.90
17483;DHT22;8858;52.308;20.994;2023-03-01T16:02:48;6.30;99.90
17483;DHT22;8858;52.308;20.994;2023-03-01T16:05:20;6.30;99.90
17483;DHT22;8858;52.308;20.994;2023-03-01T16:07:51;6.20;99.90
17483;DHT22;8858;52.308;20.994;2023-03-01T16:10:20;6.10;99.90
17483;DHT22;8858;52.308;20.994;2023-03-01T16:12:49;6.10;99.90
17483;DHT22;8858;52.308;20.994;2023-03-01T16:15:20;6.00;99.90
17483;DHT22;8858;52.308;20.994;2023-03-01T16:17:50;5.90;99.90
17483;DHT22;8858;52.308;20.994;2023-03-01T16:20:24;5.90;99.90
17483;DHT22;8858;52.308;20.994;2023-03-01T16:22:58;5.80;99.90